Time;durP1;ratioP1;P1;durP2;ratioP2;P2;SDS_P1;SDS_P2;PMS_P1;PMS_P2;Temp;Humidity;BMP_temperature;BMP_pressure;BME280_temperature;BME280_humidity;BME280_pressure;Samples;Min_cycle;Max_cycle;Signal;HPM_P1;HPM_P2
2023/01/18 00:00:27;;;;;;;2.17;1.98;;;4.00;53.70;;;2.27;56.24;98674.94;12259626;19;20356;-84
2023/01/18 00:04:28;;;;;;;2.40;1.90;;;4.10;53.70;;;2.61;56.28;98736.56;12252877;19;20051;-84
2023/01/18 00:08:32;;;;;;;1.58;1.48;;;4.20;53.60;;;2.48;56.08;98720.13;12254848;19;20016;-85
2023/01/18 00:12:34;;;;;;;1.83;1.67;;;4.00;53.40;;;2.46;56.48;98718.53;12255888;19;20013;-85
2023/01/18 00:16:38;;;;;;;2.88;2.20;;;4.10;53.60;;;2.38;56.31;98711.25;12254093;19;20007;-84
2023/01/18 00:20:40;;;;;;;3.45;1.98;;;3.90;53.60;;;2.30;56.31;98691.06;12256887;19;20025;-85
2023/01/18 00:24:41;;;;;;;2.13;1.92;;;3.90;53.60;;;2.46;56.20;98726.28;12252136;19;20011;-84
2023/01/18 00:28:44;;;;;;;1.98;1.85;;;3.90;53.60;;;2.39;56.39;98708.59;12254141;19;20452;-84
2023/01/18 00:32:53;;;;;;;3.17;1.88;;;4.00;53.70;;;2.39;56.43;98705.19;12264267;19;20032;-85
2023/01/18 00:36:55;;;;;;;3.22;1.88;;;4.10;53.70;;;2.33;56.24;98692.66;12266003;19;20036;-85
2023/01/18 00:40:57;;;;;;;2.30;1.85;;;3.90;53.70;;;2.50;56.43;98718.31;12270413;19;20159;-85
2023/01/18 00:44:59;;;;;;;2.00;1.85;;;3.90;53.70;;;2.38;56.41;98704.34;12268229;19;20090;-85
2023/01/18 00:49:01;;;;;;;3.85;2.17;;;4.10;53.80;;;2.38;56.25;98698.38;12272521;19;20360;-85
2023/01/18 00:53:02;;;;;;;3.17;2.22;;;3.90;53.70;;;2.15;56.40;98679.84;12273248;19;20006;-85
2023/01/18 00:57:04;;;;;;;2.95;2.30;;;3.90;53.70;;;2.36;56.45;98726.78;12272314;19;20455;-85
2023/01/18 01:01:08;;;;;;;4.28;2.03;;;3.90;53.70;;;2.31;56.38;98721.03;12275592;19;20025;-85
2023/01/18 01:09:43;;;;;;;2.45;2.13;;;3.80;53.80;;;2.36;56.47;98744.81;12278591;19;20011;-85
2023/01/18 01:26:46;;;;;;;4.43;2.38;;;3.80;53.70;;;2.40;56.51;98805.56;12273295;19;20531;-85
2023/01/18 01:30:48;;;;;;;3.78;2.25;;;3.80;53.80;;;2.36;56.55;98787.75;12272109;19;20017;-85
2023/01/18 01:34:50;;;;;;;2.72;2.20;;;3.80;53.80;;;2.40;56.53;98802.97;12259001;19;20523;-85
2023/01/18 01:38:53;;;;;;;2.67;2.13;;;3.90;53.80;;;2.35;56.57;98811.84;12264300;19;20485;-86
2023/01/18 01:42:56;;;;;;;2.80;2.17;;;3.80;53.80;;;2.26;56.67;98809.75;12281819;19;20022;-86
2023/01/18 01:47:18;;;;;;;3.08;2.75;;;3.90;53.90;;;2.39;56.65;98839.13;12278104;19;20379;-86
2023/01/18 01:51:20;;;;;;;2.25;2.05;;;3.80;53.90;;;2.35;56.53;98848.75;12278912;19;20018;-86
2023/01/18 01:55:30;;;;;;;3.92;2.08;;;3.80;53.80;;;2.25;56.52;98826.97;12275230;19;20026;-85
2023/01/18 01:59:40;;;;;;;2.20;1.95;;;3.80;53.70;;;2.31;56.44;98833.53;12275211;19;20428;-86
2023/01/18 02:03:42;;;;;;;1.60;1.50;;;3.80;53.80;;;2.30;56.61;98814.69;12276084;19;20113;-85
2023/01/18 02:07:45;;;;;;;2.15;1.95;;;3.80;53.80;;;2.18;56.54;98797.28;12278523;19;20023;-86
2023/01/18 02:11:46;;;;;;;2.20;2.03;;;4.00;53.90;;;2.27;56.56;98819.13;12275559;19;20482;-85
2023/01/18 02:16:04;;;;;;;3.30;2.17;;;3.80;54.00;;;2.22;56.60;98802.19;12272114;19;20018;-85
2023/01/18 02:20:22;;;;;;;2.00;1.73;;;3.80;54.00;;;2.34;56.71;98820.50;12275099;19;20020;-86
2023/01/18 02:24:33;;;;;;;2.72;2.38;;;4.00;54.00;;;2.32;56.71;98823.16;12275023;19;20086;-85
2023/01/18 02:28:36;;;;;;;3.05;1.95;;;3.80;54.00;;;1.90;56.79;98759.28;12279003;19;20018;-85
2023/01/18 02:32:53;;;;;;;2.65;1.88;;;3.80;54.00;;;2.34;56.51;98833.38;12275825;19;20033;-85
2023/01/18 02:37:04;;;;;;;2.10;1.90;;;3.80;54.00;;;2.36;56.67;98834.13;12275833;19;20011;-86
2023/01/18 02:46:29;;;;;;;2.38;1.88;;;3.80;54.00;;;2.29;56.68;98832.75;12278532;19;20018;-86
2023/01/18 02:50:10;;;;;;;2.45;1.92;;;3.80;53.90;;;2.24;56.72;98834.75;12273533;19;20050;-85
2023/01/18 02:54:22;;;;;;;2.13;1.92;;;3.80;53.80;;;2.29;56.77;98845.66;12272864;19;20022;-86
2023/01/18 02:58:33;;;;;;;2.78;2.38;;;3.80;53.90;;;2.32;56.63;98838.63;12275488;19;20018;-86
2023/01/18 03:02:37;;;;;;;3.80;2.33;;;3.80;53.90;;;1.97;56.79;98776.03;12291151;19;20019;-85
2023/01/18 03:06:42;;;;;;;2.38;2.17;;;3.80;53.90;;;1.86;56.85;98768.88;12282308;19;20065;-85
2023/01/18 03:11:09;;;;;;;2.72;2.50;;;3.80;53.90;;;2.07;56.69;98802.97;12285072;19;20388;-86
2023/01/18 03:15:49;;;;;;;2.22;1.90;;;3.70;53.90;;;2.27;56.68;98848.31;12282327;19;20006;-86
2023/01/18 03:20:06;;;;;;;4.63;1.90;;;3.70;53.90;;;2.30;56.77;98840.44;12289278;19;20397;-86
2023/01/18 03:24:09;;;;;;;3.22;1.80;;;3.70;53.90;;;2.27;56.71;98834.59;12285205;19;20030;-86
2023/01/18 03:37:42;;;;;;;2.10;1.90;;;4.00;54.00;;;2.27;56.78;98832.00;12281764;19;20011;-86
2023/01/18 03:41:50;;;;;;;2.05;1.95;;;3.70;54.00;;;2.17;56.62;98813.66;12289464;19;20019;-86
2023/01/18 03:45:54;;;;;;;2.42;2.03;;;3.70;53.90;;;2.25;56.95;98834.69;12283542;19;20022;-86
2023/01/18 03:49:57;;;;;;;3.72;2.00;;;3.70;54.00;;;2.10;56.61;98807.97;12281489;19;20015;-86
2023/01/18 03:54:46;;;;;;;4.15;2.50;;;3.70;54.00;;;2.26;56.81;98832.94;12280465;19;20034;-86
2023/01/18 03:58:52;;;;;;;3.15;1.98;;;3.70;54.00;;;2.28;56.80;98839.66;12282085;19;20034;-85
2023/01/18 04:02:54;;;;;;;3.47;1.95;;;3.70;54.00;;;2.17;56.99;98824.78;12283521;19;20014;-86
2023/01/18 04:06:56;;;;;;;2.75;1.98;;;3.70;54.00;;;2.25;56.83;98828.69;12282656;19;20014;-86
2023/01/18 04:10:58;;;;;;;3.00;2.10;;;3.80;54.10;;;2.01;56.90;98790.44;12284476;19;20014;-86
2023/01/18 04:15:02;;;;;;;2.42;2.05;;;3.80;54.40;;;2.01;56.75;98802.47;12284415;19;20492;-86
2023/01/18 04:19:06;;;;;;;2.20;2.00;;;3.80;54.00;;;2.09;56.82;98806.31;12280251;19;20022;-85
2023/01/18 04:23:08;;;;;;;2.45;1.90;;;3.80;54.00;;;1.88;56.89;98764.47;12284436;19;20007;-85
2023/01/18 04:27:10;;;;;;;2.42;1.83;;;3.80;54.00;;;2.17;56.67;98823.94;12277641;19;20031;-86
2023/01/18 04:31:12;;;;;;;2.53;1.90;;;3.70;54.00;;;2.25;56.87;98834.69;12280557;19;20022;-85
2023/01/18 04:35:14;;;;;;;2.13;1.92;;;3.70;54.00;;;2.25;56.92;98834.69;12279463;19;20014;-86
2023/01/18 04:39:16;;;;;;;3.75;2.08;;;3.70;54.10;;;2.12;56.91;98811.28;12282162;19;20054;-86
2023/01/18 04:43:18;;;;;;;3.33;2.30;;;3.70;54.10;;;2.26;56.83;98838.91;12281775;19;20021;-86
2023/01/18 04:47:20;;;;;;;2.17;1.98;;;3.70;54.10;;;2.11;56.71;98816.53;12281971;19;20038;-86
2023/01/18 04:51:26;;;;;;;3.88;2.47;;;3.80;54.10;;;2.15;56.95;98828.34;12282242;19;20518;-85
2023/01/18 04:55:28;;;;;;;5.00;3.25;;;3.80;54.10;;;2.13;57.05;98819.84;12275868;19;20007;-85
2023/01/18 04:59:29;;;;;;;3.22;2.70;;;3.70;54.10;;;2.19;56.94;98835.84;12272785;19;20029;-86
2023/01/18 05:03:36;;;;;;;2.55;2.33;;;3.80;54.20;;;1.83;56.95;98789.63;12275689;19;20010;-85
2023/01/18 05:07:38;;;;;;;3.40;2.80;;;3.80;54.20;;;2.26;56.77;98854.34;12278810;19;20025;-86
2023/01/18 05:11:41;;;;;;;2.88;1.83;;;3.90;54.30;;;2.27;56.95;98855.19;12276939;19;20025;-86
2023/01/18 05:15:43;;;;;;;2.85;2.53;;;3.80;54.20;;;2.26;56.99;98859.50;12276179;19;20074;-86
2023/01/18 05:19:45;;;;;;;2.70;1.92;;;3.80;54.30;;;2.29;56.90;98861.09;12278605;19;20010;-86
2023/01/18 05:23:47;;;;;;;3.33;2.08;;;3.80;54.30;;;2.32;57.01;98861.78;12275297;19;20054;-85
2023/01/18 05:27:48;;;;;;;4.07;3.25;;;3.80;54.30;;;2.30;56.98;98865.34;12279352;19;20018;-86
2023/01/18 05:31:51;;;;;;;5.20;3.40;;;3.90;54.30;;;2.15;57.09;98844.59;12273976;19;20423;-86
2023/01/18 05:35:54;;;;;;;4.43;3.25;;;3.80;54.30;;;2.33;57.03;98862.63;12274807;19;20057;-86
2023/01/18 05:39:56;;;;;;;3.90;3.08;;;3.80;54.30;;;2.17;56.92;98844.53;12274456;19;20018;-85
2023/01/18 05:43:58;;;;;;;3.50;2.67;;;4.10;54.40;;;2.16;57.01;98840.28;12248174;19;20078;-85
2023/01/18 05:47:59;;;;;;;2.25;1.95;;;3.90;54.50;;;2.34;56.93;98859.13;12251711;19;20006;-85
2023/01/18 05:52:01;;;;;;;2.38;2.00;;;4.10;54.60;;;2.26;57.12;98856.09;12250166;19;20021;-85
2023/01/18 05:56:05;;;;;;;3.00;2.17;;;3.90;54.60;;;2.34;57.22;98883.13;12248782;19;20018;-85
2023/01/18 06:00:08;;;;;;;2.23;1.93;;;3.90;54.60;;;2.29;57.18;98871.41;12248948;19;20451;-85
2023/01/18 06:04:12;;;;;;;6.72;2.22;;;3.90;54.60;;;2.11;57.16;98853.41;12248599;19;20078;-85
2023/01/18 06:08:15;;;;;;;2.33;2.10;;;3.90;54.60;;;2.29;56.97;98879.13;12252646;19;20014;-85
2023/01/18 06:12:16;;;;;;;2.45;2.10;;;4.10;54.70;;;2.40;57.25;98900.00;12251555;19;20011;-85
2023/01/18 06:16:18;;;;;;;2.50;1.80;;;3.90;54.60;;;2.38;57.21;98901.84;12247357;19;20011;-85
2023/01/18 06:20:20;;;;;;;2.58;2.38;;;4.00;54.70;;;2.50;57.37;98923.56;12252160;19;20523;-85
2023/01/18 06:24:21;;;;;;;2.03;1.83;;;4.30;54.80;;;2.12;57.17;98860.22;12245191;19;20019;-85
2023/01/18 06:28:23;;;;;;;7.90;4.65;;;4.30;54.80;;;2.52;57.24;98922.56;12242486;19;20031;-85
2023/01/18 06:32:25;;;;;;;4.78;3.53;;;4.10;54.70;;;2.57;57.24;98930.91;12248240;19;20374;-85
2023/01/18 06:36:28;;;;;;;6.53;3.50;;;4.10;54.80;;;2.60;57.33;98925.59;12253283;19;20025;-85
2023/01/18 06:40:30;;;;;;;2.60;2.40;;;4.10;54.80;;;2.59;57.40;98934.25;12260487;19;20035;-84
2023/01/18 06:44:32;;;;;;;2.10;1.90;;;4.10;54.80;;;2.44;57.26;98910.09;12265278;19;20010;-85
2023/01/18 06:48:35;;;;;;;4.30;2.35;;;4.10;54.80;;;2.55;57.18;98926.75;12260700;19;20030;-85
2023/01/18 06:52:36;;;;;;;2.92;1.95;;;4.30;54.90;;;2.63;57.35;98942.63;12258060;19;20027;-85
2023/01/18 06:56:38;;;;;;;2.25;1.73;;;4.20;54.90;;;2.59;57.21;98947.13;12254218;19;20033;-85
2023/01/18 07:00:40;;;;;;;2.10;1.40;;;4.10;55.00;;;2.65;57.36;98964.84;12260869;19;20002;-84
2023/01/18 07:04:44;;;;;;;1.70;1.48;;;4.30;55.10;;;2.55;57.33;98948.19;12257449;19;20018;-86
2023/01/18 07:08:48;;;;;;;2.95;1.65;;;4.50;55.10;;;2.69;57.20;98967.25;12259174;19;20637;-86
2023/01/18 07:12:50;;;;;;;5.18;1.80;;;4.20;55.00;;;2.64;57.45;98955.41;12260627;19;20014;-85
2023/01/18 07:16:51;;;;;;;1.65;1.55;;;4.20;54.90;;;2.59;57.39;98956.56;12257361;19;20023;-86
2023/01/18 07:21:02;;;;;;;2.00;1.52;;;4.20;54.90;;;2.72;57.45;98974.81;12260559;19;20030;-86
2023/01/18 07:25:05;;;;;;;2.67;1.70;;;4.40;55.10;;;2.67;57.47;98967.31;12255975;19;20014;-86
2023/01/18 07:29:07;;;;;;;1.73;1.40;;;4.30;55.10;;;2.74;57.37;98980.75;12253875;19;20015;-85
2023/01/18 07:33:10;;;;;;;2.40;1.63;;;4.30;55.10;;;2.66;57.47;98975.97;12254109;19;20019;-85
2023/01/18 07:37:12;;;;;;;2.60;1.67;;;4.30;55.10;;;2.78;57.45;98989.97;12252918;19;20078;-85
2023/01/18 07:41:16;;;;;;;3.88;1.58;;;4.30;55.10;;;2.80;57.39;98991.56;12251510;19;20546;-86
2023/01/18 07:45:20;;;;;;;2.00;1.50;;;4.40;55.20;;;2.83;57.40;98993.16;12254262;19;20015;-88
2023/01/18 07:49:21;;;;;;;1.92;1.60;;;4.40;55.20;;;2.84;57.50;98984.50;12258158;19;20015;-86
2023/01/18 07:53:24;;;;;;;1.65;1.55;;;4.40;55.30;;;2.82;57.44;98976.84;12258265;19;20041;-86
2023/01/18 07:57:26;;;;;;;3.53;1.75;;;4.40;55.30;;;2.90;57.56;98984.19;12256081;19;20014;-88
2023/01/18 08:01:28;;;;;;;1.50;1.40;;;4.40;55.40;;;2.50;57.51;98910.69;12255760;19;20010;-86
2023/01/18 08:05:33;;;;;;;2.90;1.42;;;4.70;55.50;;;2.72;57.67;98949.88;12255041;19;20003;-86
2023/01/18 08:09:35;;;;;;;2.20;1.60;;;4.40;55.40;;;2.84;57.51;98966.47;12256019;19;20456;-86
2023/01/18 08:13:37;;;;;;;1.77;1.17;;;4.50;55.50;;;2.62;57.57;98922.94;12253500;19;20011;-87
2023/01/18 08:17:39;;;;;;;3.63;1.50;;;4.50;55.50;;;2.62;57.59;98921.19;12252938;19;20032;-86
2023/01/18 08:21:40;;;;;;;3.53;1.45;;;4.70;55.50;;;2.98;57.58;98976.88;12263688;19;20468;-89
2023/01/18 08:25:44;;;;;;;1.55;1.25;;;4.60;55.50;;;2.70;57.67;98928.53;12250883;19;20671;-87
2023/01/18 08:29:47;;;;;;;1.35;1.25;;;4.60;55.50;;;3.10;57.59;98986.53;12248808;19;20015;-86
2023/01/18 08:33:49;;;;;;;1.55;1.45;;;4.60;55.50;;;2.58;57.84;98898.22;12251830;19;20442;-86
2023/01/18 08:37:51;;;;;;;1.75;1.50;;;4.70;55.50;;;3.14;57.66;98978.69;12251231;19;20492;-86
2023/01/18 08:41:53;;;;;;;1.50;1.40;;;5.00;55.60;;;2.69;57.74;98908.81;12253568;19;20086;-86
2023/01/18 08:45:54;;;;;;;2.38;1.60;;;4.70;55.50;;;3.08;57.70;98965.19;12238053;19;20055;-87
2023/01/18 08:49:56;;;;;;;1.70;1.60;;;5.00;55.60;;;3.19;57.68;98982.66;12248179;19;20018;-87
2023/01/18 08:53:58;;;;;;;1.30;1.20;;;5.10;55.70;;;3.29;57.96;99001.91;12250616;19;20017;-86
2023/01/18 08:58:00;;;;;;;1.92;1.35;;;4.80;55.60;;;3.27;57.82;99008.06;12248184;19;20014;-85
2023/01/18 09:02:01;;;;;;;1.58;1.20;;;5.10;55.70;;;3.26;57.83;98996.88;12253883;19;20456;-86
2023/01/18 09:06:08;;;;;;;1.27;1.17;;;5.10;55.70;;;3.26;57.82;99001.22;12245950;19;20643;-86
2023/01/18 09:10:12;;;;;;;1.33;1.23;;;4.90;55.60;;;3.19;57.74;98997.31;12251222;19;20040;-87
2023/01/18 09:14:14;;;;;;;1.40;1.30;;;5.10;55.70;;;3.43;57.94;99013.22;12249731;19;20476;-86
2023/01/18 09:18:15;;;;;;;1.67;1.48;;;5.00;55.60;;;3.49;57.87;99023.22;12250236;19;20571;-86
2023/01/18 09:22:17;;;;;;;5.82;1.58;;;5.10;55.70;;;3.27;58.14;98996.00;12253140;19;20048;-86
2023/01/18 09:26:19;;;;;;;2.60;2.13;;;5.10;55.70;;;3.45;57.91;99014.78;12248238;19;20011;-87
2023/01/18 09:30:21;;;;;;;3.80;2.25;;;5.10;55.70;;;3.37;58.01;98998.91;12249938;19;20010;-87
2023/01/18 09:34:23;;;;;;;2.78;2.20;;;5.10;55.70;;;3.22;57.91;98976.53;12250248;19;20029;-87
2023/01/18 09:38:24;;;;;;;4.10;2.70;;;5.30;55.80;;;3.69;58.02;99029.88;12248765;19;20014;-87
2023/01/18 09:42:40;;;;;;;3.95;2.30;;;5.20;55.80;;;3.70;58.07;99039.28;12250209;19;20311;-87
2023/01/18 09:46:42;;;;;;;1.63;1.52;;;5.20;55.80;;;3.66;58.09;99025.72;12248473;19;20022;-88
2023/01/18 09:50:44;;;;;;;2.53;1.80;;;5.40;55.80;;;3.80;57.85;99039.63;12249299;19;20018;-87
2023/01/18 09:54:49;;;;;;;1.63;1.42;;;5.30;55.80;;;3.51;58.05;98990.41;12247672;19;20360;-87
2023/01/18 09:59:12;;;;;;;1.73;1.38;;;5.40;55.80;;;3.87;57.91;99049.53;12245363;19;20767;-86
2023/01/18 10:03:25;;;;;;;1.60;1.50;;;5.40;55.80;;;3.74;58.11;99022.72;12253444;19;20018;-87
2023/01/18 10:07:32;;;;;;;1.23;1.10;;;5.50;55.90;;;3.84;57.96;99034.22;12249748;19;20018;-86
2023/01/18 10:11:54;;;;;;;3.33;1.50;;;5.50;55.90;;;3.89;57.90;99052.03;12247817;19;20060;-87
2023/01/18 10:15:55;;;;;;;1.80;1.45;;;5.50;56.00;;;3.76;58.00;99013.16;12246407;19;20025;-87
2023/01/18 10:19:58;;;;;;;1.90;1.40;;;5.50;56.00;;;3.86;57.92;99029.81;12248598;19;20030;-87
2023/01/18 10:24:39;;;;;;;3.17;1.75;;;5.50;56.00;;;3.98;58.20;99054.94;12246125;19;20354;-87
2023/01/18 10:29:05;;;;;;;1.92;1.75;;;5.60;56.10;;;3.99;58.13;99061.75;12251284;19;20015;-87
2023/01/18 10:33:21;;;;;;;2.70;1.63;;;5.60;56.00;;;3.93;58.15;99041.44;12243087;19;20035;-87
2023/01/18 10:37:39;;;;;;;1.67;1.58;;;5.60;56.00;;;4.04;58.23;99058.09;12245350;19;20038;-88
2023/01/18 10:41:42;;;;;;;2.58;1.92;;;5.60;55.80;;;3.91;58.05;99045.84;12246041;19;20105;-88
2023/01/18 10:45:44;;;;;;;2.22;1.70;;;5.70;55.80;;;4.03;58.10;99053.88;12244579;19;20039;-87
2023/01/18 10:49:49;;;;;;;2.60;1.70;;;5.70;55.80;;;3.88;57.98;99015.03;12248171;19;20829;-86
2023/01/18 10:53:50;;;;;;;1.52;1.40;;;5.70;55.80;;;4.19;58.08;99065.84;12244983;19;20090;-87
2023/01/18 10:57:53;;;;;;;2.92;1.35;;;5.70;55.80;;;4.15;58.07;99059.16;12245264;19;20007;-87
2023/01/18 11:01:57;;;;;;;2.53;2.08;;;5.80;55.90;;;4.18;58.33;99063.31;12245967;19;20022;-87
2023/01/18 11:06:05;;;;;;;3.13;2.65;;;6.10;56.00;;;4.19;58.11;99055.50;12244091;19;20019;-87
2023/01/18 11:10:26;;;;;;;7.80;3.05;;;5.80;55.90;;;4.17;58.22;99048.75;12245969;19;20060;-87
2023/01/18 11:14:30;;;;;;;2.92;2.25;;;5.80;55.80;;;4.23;58.31;99056.16;12247496;19;20011;-87
2023/01/18 11:18:32;;;;;;;4.17;2.23;;;5.90;55.80;;;4.37;58.25;99081.22;12239972;19;20014;-87
2023/01/18 11:22:34;;;;;;;3.75;2.25;;;5.90;55.80;;;4.25;58.19;99049.16;12253910;19;20022;-86
2023/01/18 11:27:06;;;;;;;2.15;1.95;;;6.00;55.90;;;4.37;58.12;99074.28;12255815;19;20061;-89
2023/01/18 11:31:14;;;;;;;2.28;1.70;;;5.90;55.90;;;4.23;58.36;99048.41;12255925;19;20003;-87
2023/01/18 11:35:31;;;;;;;5.88;2.33;;;6.00;55.80;;;4.32;58.22;99062.56;12248537;19;20014;-86
2023/01/18 11:39:34;;;;;;;2.40;1.83;;;6.00;55.90;;;4.44;58.27;99075.63;12252932;19;20014;-86
2023/01/18 11:43:38;;;;;;;2.03;1.73;;;6.00;55.80;;;4.18;58.24;99029.75;12254872;19;20010;-86
2023/01/18 11:48:14;;;;;;;1.92;1.77;;;6.00;55.80;;;4.44;58.30;99079.97;12254568;19;20007;-86
2023/01/18 11:52:45;;;;;;;3.17;1.60;;;6.10;55.90;;;4.46;58.16;99083.31;12250325;19;20022;-86
2023/01/18 11:56:51;;;;;;;2.00;1.60;;;6.10;55.80;;;4.54;58.03;99090.63;12251150;19;20390;-86
2023/01/18 12:01:04;;;;;;;1.98;1.60;;;6.20;55.90;;;4.54;58.17;99095.78;12254729;19;20015;-87
2023/01/18 12:05:26;;;;;;;1.80;1.52;;;6.10;55.90;;;4.53;58.26;99089.78;12249036;19;20025;-87
2023/01/18 12:09:55;;;;;;;5.25;3.05;;;6.10;55.90;;;4.43;58.10;99073.97;12254307;19;21363;-87
2023/01/18 12:14:45;;;;;;;4.82;3.72;;;6.10;55.90;;;4.54;58.31;99090.63;12249985;19;20082;-88
2023/01/18 12:19:09;;;;;;;5.78;3.83;;;6.10;55.90;;;4.56;58.28;99092.19;12249005;19;20010;-87
2023/01/18 12:23:59;;;;;;;2.78;2.58;;;6.10;55.80;;;4.48;58.23;99101.28;12252941;19;20022;-86
2023/01/18 12:28:15;;;;;;;4.43;2.38;;;6.10;55.80;;;4.56;58.14;99114.63;12245236;19;20059;-87
2023/01/18 12:32:41;;;;;;;9.57;2.72;;;6.10;55.90;;;4.56;58.31;99115.44;12256122;19;20528;-87
2023/01/18 12:37:05;;;;;;;;;;;6.10;55.90;;;4.46;58.26;99103.16;12252718;19;20014;-86
2023/01/18 12:41:43;;;;;;;6.53;3.78;;;6.10;55.80;;;4.51;58.23;99124.38;12256114;19;20396;-87
2023/01/18 12:45:51;;;;;;;6.40;4.32;;;6.10;55.80;;;4.48;58.41;99121.97;12249335;19;20019;-86
2023/01/18 12:49:58;;;;;;;7.88;4.28;;;6.20;55.90;;;4.35;58.07;99112.31;12252608;19;20010;-87
2023/01/18 12:54:38;;;;;;;4.43;3.08;;;6.10;55.90;;;4.52;58.15;99144.16;12250298;19;20031;-86
2023/01/18 12:58:42;;;;;;;5.18;3.28;;;6.00;56.00;;;4.51;58.26;99145.06;12250108;19;20358;-87
2023/01/18 13:02:50;;;;;;;3.43;2.97;;;6.00;55.90;;;4.46;58.07;99145.34;12251996;19;20069;-87
2023/01/18 13:06:58;;;;;;;2.70;2.50;;;6.00;56.00;;;4.31;58.15;99120.31;12249985;19;20018;-87
2023/01/18 13:11:16;;;;;;;3.47;3.17;;;6.00;56.00;;;4.54;58.24;99163.81;12252544;19;20018;-87
2023/01/18 13:15:37;;;;;;;3.20;2.58;;;6.00;56.10;;;4.56;58.14;99172.31;12251811;19;20014;-87
2023/01/18 13:19:54;;;;;;;4.03;2.90;;;6.00;56.10;;;4.40;58.19;99156.84;12253648;19;20058;-87
2023/01/18 13:24:11;;;;;;;6.07;4.40;;;6.00;56.10;;;4.58;58.29;99180.00;12251500;19;20010;-87
2023/01/18 13:28:31;;;;;;;4.47;4.07;;;6.00;56.10;;;4.53;58.16;99177.66;12249658;19;20014;-87
2023/01/18 13:32:37;;;;;;;4.18;3.17;;;6.00;56.20;;;4.55;58.28;99178.41;12250948;19;20029;-87
2023/01/18 13:36:45;;;;;;;4.38;3.42;;;6.10;56.50;;;4.27;58.31;99136.94;12245714;19;20014;-87
2023/01/18 13:41:11;;;;;;;3.25;2.95;;;6.30;56.30;;;4.53;58.29;99187.16;12247962;19;20089;-86
2023/01/18 13:45:24;;;;;;;4.78;3.50;;;6.10;56.30;;;4.44;58.20;99170.41;12245270;19;20074;-86
2023/01/18 13:49:31;;;;;;;3.28;2.95;;;6.10;56.20;;;4.53;58.14;99198.34;12259212;19;20535;-87
2023/01/18 13:53:49;;;;;;;3.63;3.30;;;6.30;56.30;;;4.64;58.35;99215.84;12263831;19;20015;-87
2023/01/18 13:57:54;;;;;;;5.40;3.50;;;6.20;56.30;;;4.69;58.19;99229.34;12266211;19;20078;-87
2023/01/18 14:02:33;;;;;;;5.57;3.70;;;6.10;56.30;;;4.69;58.11;99236.28;12260124;19;20031;-86
2023/01/18 14:06:40;;;;;;;3.88;3.22;;;6.10;56.30;;;4.59;58.22;99229.03;12274155;19;20013;-88
2023/01/18 14:10:49;;;;;;;5.53;3.58;;;6.30;56.30;;;4.67;58.29;99246.69;12300591;19;20021;-87
2023/01/18 14:14:59;;;;;;;5.90;3.58;;;6.30;56.30;;;4.72;58.26;99264.53;12272406;19;20022;-86
2023/01/18 14:19:20;;;;;;;5.90;3.58;;;6.20;56.30;;;4.70;58.27;99268.97;12270636;19;20070;-87
2023/01/18 14:23:48;;;;;;;3.92;3.22;;;6.20;56.30;;;4.71;58.40;99279.22;12270225;19;20031;-87
2023/01/18 14:28:16;;;;;;;4.72;4.15;;;6.20;56.30;;;4.54;58.40;99264.63;12270689;19;20480;-87
2023/01/18 14:32:25;;;;;;;4.53;3.28;;;6.40;56.40;;;4.62;58.43;99277.16;12267202;19;20024;-87
2023/01/18 14:36:28;;;;;;;4.53;3.03;;;6.30;56.30;;;4.72;58.32;99303.31;12263304;19;20107;-87
2023/01/18 14:40:30;;;;;;;3.70;2.95;;;6.20;56.30;;;4.66;58.49;99301.91;12262806;19;20070;-87
2023/01/18 14:44:45;;;;;;;3.80;2.78;;;6.10;56.20;;;4.62;58.33;99293.50;12259830;19;20023;-87
2023/01/18 14:48:50;;;;;;;;;;;6.20;56.30;;;4.61;58.37;99309.06;12259489;19;20058;-87
2023/01/18 14:52:52;;;;;;;2.58;2.25;;;6.20;56.20;;;4.59;58.29;99311.75;12262653;19;19933;-87
2023/01/18 14:57:03;;;;;;;4.38;2.35;;;6.10;56.10;;;4.67;58.37;99324.25;12270354;19;20011;-87
2023/01/18 15:01:07;;;;;;;2.45;2.25;;;6.10;56.20;;;4.27;58.25;99277.28;12275595;19;20025;-87
2023/01/18 15:05:10;;;;;;;2.60;2.20;;;6.10;56.20;;;4.58;58.42;99341.09;12283340;19;20040;-87
2023/01/18 15:09:12;;;;;;;4.72;2.75;;;6.10;56.20;;;4.64;58.39;99353.72;12282207;19;20022;-87
2023/01/18 15:13:17;;;;;;;3.50;2.85;;;6.10;56.20;;;4.60;58.10;99349.63;12284647;19;20021;-88
2023/01/18 15:17:24;;;;;;;5.40;2.95;;;6.10;56.30;;;4.61;58.23;99358.19;12283135;19;20022;-86
2023/01/18 15:21:34;;;;;;;3.60;2.15;;;6.20;56.30;;;4.68;58.27;99362.13;12282506;19;20017;-87
2023/01/18 15:25:35;;;;;;;3.10;2.58;;;6.10;56.30;;;4.58;58.48;99350.59;12275812;19;20359;-87
2023/01/18 15:29:37;;;;;;;3.60;2.50;;;6.10;56.30;;;4.58;58.43;99355.78;12280755;19;20010;-87
2023/01/18 15:33:40;;;;;;;3.17;2.50;;;6.10;56.30;;;4.65;58.53;99377.81;12283585;19;20021;-87
2023/01/18 15:37:42;;;;;;;2.30;2.00;;;6.10;56.30;;;4.70;58.50;99385.31;12275593;19;20011;-87
2023/01/18 15:41:44;;;;;;;3.35;2.35;;;6.10;56.30;;;4.64;58.41;99386.47;12279148;19;20026;-87
2023/01/18 15:45:48;;;;;;;3.30;3.00;;;6.10;56.30;;;4.62;58.58;99389.16;12278160;19;20082;-86
2023/01/18 15:49:54;;;;;;;3.03;2.72;;;6.20;56.40;;;4.43;58.43;99368.59;12281994;19;20010;-87
2023/01/18 15:53:56;;;;;;;4.82;2.72;;;6.20;56.30;;;4.68;58.37;99411.25;12278209;19;20472;-87
2023/01/18 15:58:02;;;;;;;5.03;2.72;;;6.20;56.30;;;4.65;58.56;99408.84;12264377;19;20018;-87
2023/01/18 16:02:07;;;;;;;2.95;2.63;;;6.20;56.30;;;4.78;58.58;99433.16;12264405;19;20671;-87
2023/01/18 16:06:19;;;;;;;2.55;2.20;;;6.20;56.30;;;4.78;58.50;99446.06;12267434;19;20098;-87
2023/01/18 16:10:27;;;;;;;2.65;2.45;;;6.20;56.30;;;4.72;58.65;99436.03;12266586;19;20667;-86
2023/01/18 16:14:34;;;;;;;3.92;2.35;;;6.20;56.20;;;4.75;58.58;99451.41;12255068;19;20019;-86
2023/01/18 16:18:36;;;;;;;2.60;2.40;;;6.20;56.30;;;4.75;58.29;99466.06;12249112;19;20396;-87
2023/01/18 16:22:38;;;;;;;3.40;2.92;;;6.20;56.30;;;4.75;58.47;99469.50;12255551;19;20565;-87
2023/01/18 16:26:42;;;;;;;4.07;3.15;;;6.20;56.20;;;4.71;58.35;99462.81;12249656;19;20011;-86
2023/01/18 16:30:50;;;;;;;3.25;2.95;;;6.50;56.40;;;4.71;58.55;99477.50;12253300;19;20014;-86
2023/01/18 16:34:52;;;;;;;4.63;3.17;;;6.20;56.30;;;4.71;58.42;99469.75;12246680;19;20478;-86
2023/01/18 16:38:54;;;;;;;4.25;3.30;;;6.50;56.40;;;4.63;58.55;99459.78;12250766;19;20364;-86
2023/01/18 16:43:01;;;;;;;4.40;3.78;;;6.40;56.40;;;4.74;58.58;99490.28;12256636;19;20022;-87
2023/01/18 16:47:04;;;;;;;4.60;3.53;;;6.20;56.30;;;4.71;58.42;99490.44;12252676;19;20492;-87
2023/01/18 16:51:13;;;;;;;4.68;2.83;;;6.20;56.30;;;4.73;58.41;99507.53;12255675;19;20022;-86
2023/01/18 16:55:16;;;;;;;5.72;3.40;;;6.20;56.30;;;4.61;58.47;99492.63;12251470;19;20010;-87
2023/01/18 16:59:20;;;;;;;6.15;3.03;;;6.20;56.30;;;4.74;58.55;99519.53;12249424;19;20014;-85
2023/01/18 17:03:23;;;;;;;4.68;3.50;;;6.20;56.30;;;4.74;58.48;99522.13;12247099;19;20051;-86
2023/01/18 17:07:24;;;;;;;4.22;3.38;;;6.40;56.30;;;4.60;58.64;99502.16;12251607;19;20472;-86
2023/01/18 17:11:26;;;;;;;3.90;3.17;;;6.20;56.20;;;4.61;58.46;99510.72;12253246;19;20352;-86
2023/01/18 17:15:29;;;;;;;4.07;3.10;;;6.10;56.20;;;4.70;58.51;99533.56;12249205;19;20007;-86
2023/01/18 17:19:31;;;;;;;3.97;3.22;;;6.30;56.30;;;4.69;58.54;99539.63;12252185;19;20014;-86
2023/01/18 17:23:33;;;;;;;4.68;4.20;;;6.20;56.30;;;4.73;58.54;99545.50;12252297;19;20022;-87
2023/01/18 17:27:34;;;;;;;5.00;4.20;;;6.10;56.20;;;4.68;58.69;99543.13;12252963;19;20025;-86
2023/01/18 17:31:36;;;;;;;5.45;4.43;;;6.40;56.40;;;4.74;58.43;99557.50;12254248;19;20379;-86
2023/01/18 17:35:38;;;;;;;5.85;4.63;;;6.20;56.30;;;4.54;58.58;99532.66;12250638;19;20014;-85
2023/01/18 17:39:41;;;;;;;12.50;5.82;;;6.20;56.30;;;4.66;58.61;99557.88;12251561;19;20006;-88
2023/01/18 17:43:43;;;;;;;10.57;6.43;;;6.10;56.20;;;4.73;58.49;99573.94;12248571;19;20027;-85
2023/01/18 17:47:45;;;;;;;10.25;6.82;;;6.10;56.20;;;4.72;58.52;99580.84;12251940;19;20018;-85
2023/01/18 17:51:47;;;;;;;16.27;10.70;;;6.20;56.30;;;4.72;58.56;99582.59;12247332;19;20471;-85
2023/01/18 17:55:48;;;;;;;12.18;7.53;;;6.40;56.40;;;4.68;58.59;99579.34;12247283;19;20014;-86
2023/01/18 17:59:54;;;;;;;9.55;7.00;;;6.30;56.30;;;4.64;58.43;99578.66;12247362;19;20019;-85